Time;durP1;ratioP1;P1;durP2;ratioP2;P2;SDS_P1;SDS_P2;PMS_P1;PMS_P2;Temp;Humidity;BMP_temperature;BMP_pressure;BME280_temperature;BME280_humidity;BME280_pressure;Samples;Min_cycle;Max_cycle;Signal;HPM_P1;HPM_P2
2022/01/24 00:01:16;;;;;;;3.10;2.80;;;;;;;;;;4993150;28;20435;-51
2022/01/24 00:03:42;;;;;;;4.00;3.22;;;;;;;;;;4993169;28;20805;-51
2022/01/24 00:06:11;;;;;;;3.47;2.90;;;;;;;;;;4993221;28;20176;-51
2022/01/24 00:08:37;;;;;;;3.20;2.90;;;;;;;;;;4993026;28;20176;-51
2022/01/24 00:11:09;;;;;;;3.63;3.13;;;;;;;;;;4992720;28;20950;-50
2022/01/24 00:26:54;;;;;;;2.70;2.50;;;;;;;;;;4992760;28;20176;-51
2022/01/24 00:29:22;;;;;;;6.05;2.97;;;;;;;;;;4992605;28;20171;-51
2022/01/24 00:31:48;;;;;;;2.92;2.70;;;;;;;;;;4992478;28;20235;-51
2022/01/24 00:34:14;;;;;;;3.97;3.58;;;;;;;;;;4992661;28;20167;-51
2022/01/24 00:36:41;;;;;;;2.53;2.33;;;;;;;;;;4992590;28;20165;-51
2022/01/24 00:39:07;;;;;;;2.80;2.60;;;;;;;;;;4991599;28;20165;-51
2022/01/24 00:41:43;;;;;;;2.55;2.35;;;;;;;;;;4992479;28;20190;-51
2022/01/24 00:46:52;;;;;;;2.70;2.50;;;;;;;;;;4992704;28;20212;-51
2022/01/24 00:54:52;;;;;;;2.95;2.75;;;;;;;;;;4992477;28;20212;-51
2022/01/24 00:57:18;;;;;;;2.55;2.38;;;;;;;;;;4992549;28;20161;-52
2022/01/24 00:59:44;;;;;;;2.70;2.40;;;;;;;;;;4992265;28;20177;-51
2022/01/24 01:02:10;;;;;;;2.60;2.40;;;;;;;;;;4992179;28;20487;-52
2022/01/24 01:07:26;;;;;;;3.10;2.90;;;;;;;;;;4992071;28;20415;-51
2022/01/24 01:18:24;;;;;;;2.40;2.20;;;;;;;;;;4992065;28;20179;-51
2022/01/24 01:23:24;;;;;;;3.85;2.95;;;;;;;;;;4991900;28;20184;-51
2022/01/24 01:25:51;;;;;;;2.65;2.45;;;;;;;;;;4991719;28;20173;-51
2022/01/24 01:28:18;;;;;;;2.90;2.70;;;;;;;;;;4991883;28;20165;-51
2022/01/24 01:30:48;;;;;;;2.87;2.67;;;;;;;;;;4991535;28;20259;-51
2022/01/24 01:38:41;;;;;;;3.07;2.87;;;;;;;;;;4991767;28;20169;-51
2022/01/24 01:52:37;;;;;;;2.60;2.50;;;;;;;;;;4972072;28;20575;-51
2022/01/24 01:57:32;;;;;;;2.35;2.20;;;;;;;;;;4976389;28;20644;-50
2022/01/24 01:59:58;;;;;;;2.50;2.30;;;;;;;;;;4975883;28;20236;-51
2022/01/24 02:02:24;;;;;;;3.03;2.73;;;;;;;;;;4975816;28;20425;-51
2022/01/24 02:04:50;;;;;;;2.67;2.47;;;;;;;;;;4975978;28;20413;-52
2022/01/24 02:07:17;;;;;;;2.50;2.10;;;;;;;;;;4975921;28;20418;-51
2022/01/24 02:09:45;;;;;;;2.45;2.20;;;;;;;;;;4975663;28;20407;-51
2022/01/24 02:12:12;;;;;;;2.17;2.03;;;;;;;;;;4981191;28;20208;-51
2022/01/24 02:14:44;;;;;;;2.75;2.20;;;;;;;;;;4995325;28;20224;-51
2022/01/24 02:17:16;;;;;;;2.60;2.40;;;;;;;;;;4995591;28;20165;-51
2022/01/24 02:20:08;;;;;;;3.20;2.80;;;;;;;;;;4995295;28;20321;-51
2022/01/24 02:22:46;;;;;;;2.17;2.08;;;;;;;;;;4995094;28;20207;-51
2022/01/24 02:25:24;;;;;;;2.60;2.42;;;;;;;;;;4995149;28;20260;-51
2022/01/24 02:27:56;;;;;;;3.30;2.80;;;;;;;;;;4995118;28;20177;-51
2022/01/24 02:33:15;;;;;;;2.85;2.65;;;;;;;;;;4979139;28;20247;-51
2022/01/24 02:35:41;;;;;;;5.40;2.30;;;;;;;;;;4994825;28;20228;-51
2022/01/24 02:38:19;;;;;;;2.10;2.00;;;;;;;;;;4994860;28;20579;-51
2022/01/24 02:46:00;;;;;;;2.40;2.20;;;;;;;;;;4994449;28;20405;-52
2022/01/24 02:49:00;;;;;;;3.08;2.88;;;;;;;;;;4994636;28;20546;-51
2022/01/24 02:51:45;;;;;;;2.53;2.33;;;;;;;;;;4994499;28;20263;-51
2022/01/24 02:54:18;;;;;;;2.90;2.70;;;;;;;;;;4994498;28;20459;-51
2022/01/24 02:56:44;;;;;;;3.25;2.40;;;;;;;;;;4994500;28;20170;-50
2022/01/24 02:59:10;;;;;;;2.80;2.60;;;;;;;;;;4992943;28;20177;-51
2022/01/24 03:01:36;;;;;;;2.40;2.30;;;;;;;;;;4993010;28;20433;-51
2022/01/24 03:04:02;;;;;;;2.40;2.20;;;;;;;;;;4994231;28;20413;-51
2022/01/24 03:06:28;;;;;;;3.03;2.83;;;;;;;;;;4993904;28;20892;-51
2022/01/24 03:08:54;;;;;;;2.30;2.10;;;;;;;;;;4993991;28;20850;-51
2022/01/24 03:11:20;;;;;;;2.83;2.63;;;;;;;;;;4993094;28;20440;-53
2022/01/24 03:13:46;;;;;;;2.53;2.33;;;;;;;;;;4994130;28;20404;-51
2022/01/24 03:16:12;;;;;;;3.03;2.83;;;;;;;;;;4994023;28;20295;-51
2022/01/24 03:18:38;;;;;;;2.73;2.53;;;;;;;;;;4994121;28;20681;-51
2022/01/24 03:21:04;;;;;;;2.20;2.10;;;;;;;;;;4993832;28;20428;-51
2022/01/24 03:23:31;;;;;;;2.28;2.05;;;;;;;;;;4993959;28;20492;-51
2022/01/24 03:25:57;;;;;;;2.50;2.30;;;;;;;;;;4993943;28;20779;-51
2022/01/24 03:28:24;;;;;;;2.63;2.45;;;;;;;;;;4993967;28;20175;-52
2022/01/24 03:30:50;;;;;;;3.40;2.88;;;;;;;;;;4993525;28;20239;-51
2022/01/24 03:33:17;;;;;;;3.03;2.72;;;;;;;;;;4993784;28;20168;-51
2022/01/24 03:35:43;;;;;;;2.28;2.17;;;;;;;;;;4993771;28;20193;-51
2022/01/24 03:38:11;;;;;;;5.60;2.53;;;;;;;;;;4993848;28;20700;-51
2022/01/24 03:40:37;;;;;;;2.30;2.17;;;;;;;;;;4993638;28;20165;-51
2022/01/24 03:43:03;;;;;;;2.90;2.70;;;;;;;;;;4992842;28;20195;-53
2022/01/24 03:48:11;;;;;;;2.97;2.78;;;;;;;;;;4993561;28;20414;-51
2022/01/24 03:50:37;;;;;;;2.80;2.60;;;;;;;;;;4992962;28;20172;-50
2022/01/24 03:53:04;;;;;;;2.67;2.47;;;;;;;;;;4993454;28;20196;-51
2022/01/24 03:55:30;;;;;;;3.00;2.80;;;;;;;;;;4993455;28;20951;-51
2022/01/24 03:57:56;;;;;;;2.17;2.00;;;;;;;;;;4993318;28;20215;-52
2022/01/24 04:00:22;;;;;;;2.50;2.30;;;;;;;;;;4993161;28;20254;-52
2022/01/24 04:02:48;;;;;;;4.97;2.60;;;;;;;;;;4993176;28;20420;-51
2022/01/24 04:05:14;;;;;;;2.60;2.40;;;;;;;;;;4993271;28;20169;-51
2022/01/24 04:07:41;;;;;;;2.53;2.20;;;;;;;;;;4993186;28;20291;-51
2022/01/24 04:10:08;;;;;;;2.95;2.70;;;;;;;;;;4992920;28;20405;-51
2022/01/24 04:12:37;;;;;;;2.20;2.10;;;;;;;;;;4991290;28;20208;-51
2022/01/24 04:15:24;;;;;;;3.42;2.75;;;;;;;;;;4992958;28;20280;-51
2022/01/24 04:17:58;;;;;;;3.67;2.45;;;;;;;;;;4992298;28;20191;-51
2022/01/24 04:23:28;;;;;;;5.00;2.40;;;;;;;;;;4992978;28;20172;-51
2022/01/24 04:25:54;;;;;;;2.55;2.35;;;;;;;;;;4992791;28;20169;-51
2022/01/24 04:28:20;;;;;;;2.40;2.30;;;;;;;;;;4992820;28;20242;-51
2022/01/24 04:30:47;;;;;;;2.60;2.40;;;;;;;;;;4992538;28;20409;-51
2022/01/24 04:33:13;;;;;;;2.35;2.22;;;;;;;;;;4992593;28;20422;-51
2022/01/24 04:35:39;;;;;;;2.60;2.37;;;;;;;;;;4992597;28;20572;-52
2022/01/24 04:38:05;;;;;;;2.72;2.38;;;;;;;;;;4992535;28;20403;-51
2022/01/24 04:40:31;;;;;;;2.30;2.20;;;;;;;;;;4992434;28;20543;-51
2022/01/24 04:43:16;;;;;;;2.50;2.30;;;;;;;;;;4991402;28;20452;-51
2022/01/24 04:51:30;;;;;;;2.67;2.47;;;;;;;;;;4991450;28;20211;-51
2022/01/24 04:56:34;;;;;;;2.83;2.63;;;;;;;;;;4991762;28;20184;-54
2022/01/24 04:59:00;;;;;;;2.55;2.35;;;;;;;;;;4990813;28;20182;-51
2022/01/24 05:01:27;;;;;;;2.70;2.50;;;;;;;;;;4992186;28;20191;-51
2022/01/24 05:03:53;;;;;;;2.40;2.30;;;;;;;;;;4992175;28;20404;-52
2022/01/24 05:06:19;;;;;;;3.25;2.95;;;;;;;;;;4992188;28;20176;-51
2022/01/24 05:08:45;;;;;;;2.30;2.10;;;;;;;;;;4992278;28;20226;-51
2022/01/24 05:11:16;;;;;;;3.77;2.60;;;;;;;;;;4991927;28;20225;-51
2022/01/24 05:24:32;;;;;;;3.00;2.80;;;;;;;;;;4992067;28;20547;-51
2022/01/24 05:26:58;;;;;;;3.10;2.73;;;;;;;;;;4991893;28;20177;-51
2022/01/24 05:29:24;;;;;;;2.80;2.47;;;;;;;;;;4991568;28;20466;-51
2022/01/24 05:31:50;;;;;;;2.83;2.43;;;;;;;;;;4991737;28;20428;-51
2022/01/24 05:34:16;;;;;;;3.00;2.70;;;;;;;;;;4991646;28;20413;-51
2022/01/24 05:36:42;;;;;;;3.43;3.13;;;;;;;;;;4991978;28;20165;-51
2022/01/24 05:39:09;;;;;;;2.80;2.60;;;;;;;;;;4991547;28;20432;-51
2022/01/24 05:41:37;;;;;;;4.05;2.70;;;;;;;;;;4990492;28;20193;-51
2022/01/24 05:44:03;;;;;;;2.70;2.50;;;;;;;;;;4991568;28;20196;-51
2022/01/24 05:46:29;;;;;;;2.83;2.63;;;;;;;;;;4991648;28;20435;-51
2022/01/24 05:48:55;;;;;;;2.80;2.60;;;;;;;;;;4991355;28;20632;-51
2022/01/24 05:51:21;;;;;;;3.23;2.93;;;;;;;;;;4991539;28;20436;-51
2022/01/24 05:53:47;;;;;;;6.40;2.50;;;;;;;;;;4991491;28;20884;-51
2022/01/24 05:56:13;;;;;;;3.28;2.97;;;;;;;;;;4991464;28;20200;-51
2022/01/24 05:58:39;;;;;;;2.83;2.63;;;;;;;;;;4991538;28;20173;-51
2022/01/24 06:01:05;;;;;;;3.23;2.83;;;;;;;;;;4991259;28;20200;-51
2022/01/24 06:03:31;;;;;;;3.87;3.40;;;;;;;;;;4991380;28;20414;-52
2022/01/24 06:05:57;;;;;;;3.40;3.10;;;;;;;;;;4990578;28;20764;-51
2022/01/24 06:08:23;;;;;;;4.13;2.93;;;;;;;;;;4991488;28;20519;-51
2022/01/24 06:10:49;;;;;;;5.43;3.50;;;;;;;;;;4991118;28;20413;-51
2022/01/24 06:13:15;;;;;;;3.20;3.00;;;;;;;;;;4992162;28;20915;-53
2022/01/24 06:15:42;;;;;;;4.20;3.50;;;;;;;;;;4991332;28;20479;-53
2022/01/24 06:18:09;;;;;;;3.43;3.13;;;;;;;;;;4991352;28;20175;-53
2022/01/24 06:20:35;;;;;;;3.63;3.33;;;;;;;;;;4991201;28;20405;-52
2022/01/24 06:23:01;;;;;;;5.17;3.40;;;;;;;;;;4991305;28;20190;-52
2022/01/24 06:25:29;;;;;;;4.60;3.70;;;;;;;;;;4991351;28;20420;-52
2022/01/24 06:27:55;;;;;;;3.90;3.60;;;;;;;;;;4991286;28;20178;-52
2022/01/24 06:30:21;;;;;;;4.40;4.00;;;;;;;;;;4991194;28;20178;-53
2022/01/24 06:32:47;;;;;;;6.23;4.27;;;;;;;;;;4991169;28;20420;-52
2022/01/24 06:35:14;;;;;;;4.53;4.00;;;;;;;;;;4991198;28;20522;-52
2022/01/24 06:37:41;;;;;;;4.53;4.13;;;;;;;;;;4989619;28;20177;-52
2022/01/24 06:40:08;;;;;;;4.50;4.10;;;;;;;;;;4991919;28;20184;-52
2022/01/24 06:42:34;;;;;;;4.90;4.40;;;;;;;;;;4994196;28;20188;-51
2022/01/24 06:45:00;;;;;;;5.40;4.07;;;;;;;;;;4994870;28;20168;-51
2022/01/24 06:47:26;;;;;;;4.07;3.60;;;;;;;;;;4994728;28;20566;-51
2022/01/24 06:49:52;;;;;;;3.40;3.20;;;;;;;;;;4994454;28;20404;-52
2022/01/24 06:52:18;;;;;;;3.70;3.40;;;;;;;;;;4994435;28;20428;-51
2022/01/24 06:54:45;;;;;;;4.15;3.70;;;;;;;;;;4994417;28;20615;-52
2022/01/24 06:57:12;;;;;;;4.70;4.20;;;;;;;;;;4994467;28;20250;-51
2022/01/24 06:59:42;;;;;;;4.03;3.63;;;;;;;;;;4994127;28;20173;-52
2022/01/24 07:02:08;;;;;;;7.40;4.50;;;;;;;;;;4994531;28;20203;-51
2022/01/24 07:04:36;;;;;;;4.57;4.18;;;;;;;;;;4994391;28;20248;-51
2022/01/24 07:07:06;;;;;;;4.88;4.38;;;;;;;;;;4993463;28;20192;-51
2022/01/24 07:09:32;;;;;;;6.55;4.30;;;;;;;;;;4994078;28;20196;-51
2022/01/24 07:11:58;;;;;;;4.90;4.22;;;;;;;;;;4993959;28;20728;-51
2022/01/24 07:14:25;;;;;;;5.10;4.60;;;;;;;;;;4993980;28;20188;-51
2022/01/24 07:19:27;;;;;;;4.85;4.38;;;;;;;;;;4994002;28;20768;-51
2022/01/24 07:21:57;;;;;;;4.95;4.35;;;;;;;;;;4993824;28;20243;-51
2022/01/24 07:24:23;;;;;;;4.70;4.32;;;;;;;;;;4994015;28;20213;-51
2022/01/24 07:26:49;;;;;;;10.27;5.25;;;;;;;;;;4993858;28;20227;-52
2022/01/24 07:29:15;;;;;;;4.93;4.43;;;;;;;;;;4993676;28;20756;-51
2022/01/24 07:31:41;;;;;;;5.57;5.07;;;;;;;;;;4993741;28;20276;-51
2022/01/24 07:34:07;;;;;;;5.70;5.20;;;;;;;;;;4993823;28;20400;-50
2022/01/24 07:36:34;;;;;;;5.50;5.00;;;;;;;;;;4992613;28;20878;-51
2022/01/24 07:39:00;;;;;;;6.50;5.80;;;;;;;;;;4993656;28;20176;-51
2022/01/24 07:41:29;;;;;;;8.60;5.10;;;;;;;;;;4993559;28;20256;-50
2022/01/24 07:43:55;;;;;;;10.95;5.28;;;;;;;;;;4992320;28;20536;-51
2022/01/24 07:46:21;;;;;;;6.10;5.57;;;;;;;;;;4993592;28;20172;-51
2022/01/24 07:48:47;;;;;;;5.93;5.32;;;;;;;;;;4993627;28;20244;-52
2022/01/24 07:51:15;;;;;;;7.23;6.53;;;;;;;;;;4993380;28;20814;-50
2022/01/24 07:53:41;;;;;;;6.35;5.05;;;;;;;;;;4992406;28;20408;-51
2022/01/24 07:56:07;;;;;;;5.27;4.87;;;;;;;;;;4991780;28;20204;-51
2022/01/24 07:58:33;;;;;;;5.57;5.07;;;;;;;;;;4992360;28;20990;-51
2022/01/24 08:00:59;;;;;;;5.90;5.40;;;;;;;;;;4993326;28;20400;-51
2022/01/24 08:03:26;;;;;;;5.47;4.97;;;;;;;;;;4993430;28;20166;-51
2022/01/24 08:05:52;;;;;;;5.65;5.15;;;;;;;;;;4993388;28;20408;-51
2022/01/24 08:08:18;;;;;;;6.05;4.90;;;;;;;;;;4991397;28;20189;-51
2022/01/24 08:10:44;;;;;;;8.20;5.83;;;;;;;;;;4992837;28;20180;-51
2022/01/24 08:13:12;;;;;;;5.65;5.15;;;;;;;;;;4992933;28;20490;-51
2022/01/24 08:15:38;;;;;;;5.07;4.68;;;;;;;;;;4993066;28;20727;-51
2022/01/24 08:18:04;;;;;;;4.87;4.43;;;;;;;;;;4993169;28;20285;-51
2022/01/24 08:20:30;;;;;;;5.57;5.07;;;;;;;;;;4992820;28;20409;-51
2022/01/24 08:22:56;;;;;;;5.43;4.93;;;;;;;;;;4992626;28;20428;-52
2022/01/24 08:25:23;;;;;;;7.30;5.63;;;;;;;;;;4992879;28;20404;-53
2022/01/24 08:27:49;;;;;;;4.90;4.40;;;;;;;;;;4992816;28;20907;-51
2022/01/24 08:30:17;;;;;;;5.03;4.53;;;;;;;;;;4992645;28;20173;-51
2022/01/24 08:32:43;;;;;;;5.68;5.18;;;;;;;;;;4992607;28;20462;-52
2022/01/24 08:35:10;;;;;;;5.95;5.25;;;;;;;;;;4992649;28;20700;-51
2022/01/24 08:37:37;;;;;;;6.30;4.85;;;;;;;;;;4990785;28;20169;-51
2022/01/24 08:40:04;;;;;;;5.40;4.90;;;;;;;;;;4992424;28;20246;-50
2022/01/24 08:42:42;;;;;;;5.15;4.65;;;;;;;;;;4992378;28;20192;-52
2022/01/24 08:47:35;;;;;;;5.20;4.70;;;;;;;;;;4992534;28;20184;-53
2022/01/24 08:50:03;;;;;;;6.70;4.70;;;;;;;;;;4992184;28;20181;-50
2022/01/24 08:52:29;;;;;;;6.00;5.00;;;;;;;;;;4992228;28;20201;-51
2022/01/24 08:54:55;;;;;;;6.07;4.80;;;;;;;;;;4992298;28;20215;-52
2022/01/24 08:57:25;;;;;;;5.83;5.23;;;;;;;;;;4993246;28;20412;-51
2022/01/24 08:59:52;;;;;;;5.22;4.72;;;;;;;;;;4991937;28;20416;-50
2022/01/24 09:02:18;;;;;;;6.88;5.40;;;;;;;;;;4991815;28;20189;-51
2022/01/24 09:04:44;;;;;;;5.70;5.20;;;;;;;;;;4991613;28;20235;-52
2022/01/24 09:07:10;;;;;;;5.83;5.20;;;;;;;;;;4992104;28;20185;-50
2022/01/24 09:09:36;;;;;;;12.60;4.95;;;;;;;;;;4990021;28;20842;-50
2022/01/24 09:12:06;;;;;;;6.25;5.70;;;;;;;;;;4991885;28;20208;-51
2022/01/24 09:14:32;;;;;;;6.20;4.80;;;;;;;;;;4991977;28;20394;-50
2022/01/24 09:16:58;;;;;;;9.30;5.50;;;;;;;;;;4991938;28;20173;-50
2022/01/24 09:19:24;;;;;;;6.55;5.57;;;;;;;;;;4991701;28;20641;-50
2022/01/24 09:21:51;;;;;;;6.18;5.57;;;;;;;;;;4991927;28;20192;-50
2022/01/24 09:24:17;;;;;;;5.13;4.65;;;;;;;;;;4991974;28;20181;-52
2022/01/24 09:26:43;;;;;;;8.80;4.93;;;;;;;;;;4992053;28;20296;-50
2022/01/24 09:29:09;;;;;;;7.77;5.50;;;;;;;;;;4991946;28;20446;-50
2022/01/24 09:31:36;;;;;;;5.70;4.33;;;;;;;;;;4991819;28;20424;-51
2022/01/24 09:34:03;;;;;;;5.72;5.20;;;;;;;;;;4991657;28;20762;-51
2022/01/24 09:36:29;;;;;;;6.45;5.80;;;;;;;;;;4991726;28;20644;-52
2022/01/24 09:38:56;;;;;;;6.37;5.63;;;;;;;;;;4990723;28;20173;-51
2022/01/24 09:41:22;;;;;;;7.40;5.95;;;;;;;;;;4991314;28;20856;-50
2022/01/24 09:43:48;;;;;;;5.93;5.33;;;;;;;;;;4991628;28;20240;-51
2022/01/24 09:46:14;;;;;;;6.30;5.10;;;;;;;;;;4991360;28;20823;-51
2022/01/24 09:48:41;;;;;;;9.80;5.80;;;;;;;;;;4991473;28;20428;-51
2022/01/24 09:51:07;;;;;;;5.82;5.00;;;;;;;;;;4991381;28;20999;-51
2022/01/24 09:53:34;;;;;;;6.60;5.78;;;;;;;;;;4991487;28;20220;-51
2022/01/24 09:56:03;;;;;;;10.77;6.05;;;;;;;;;;4991450;28;20251;-51
2022/01/24 09:58:29;;;;;;;6.43;5.82;;;;;;;;;;4991571;28;20538;-50
2022/01/24 10:00:55;;;;;;;6.03;4.50;;;;;;;;;;4989882;28;20637;-51
2022/01/24 10:03:24;;;;;;;5.97;5.40;;;;;;;;;;4991245;28;20166;-51
2022/01/24 10:05:57;;;;;;;6.30;5.47;;;;;;;;;;4991305;28;20165;-51
2022/01/24 10:08:26;;;;;;;6.03;5.50;;;;;;;;;;4990284;28;20264;-51
2022/01/24 10:10:53;;;;;;;5.57;5.07;;;;;;;;;;4990286;28;20190;-52
2022/01/24 10:16:26;;;;;;;8.95;5.10;;;;;;;;;;4991478;28;20231;-51
2022/01/24 10:19:04;;;;;;;5.05;4.65;;;;;;;;;;4993669;28;20169;-54
2022/01/24 10:21:30;;;;;;;5.78;5.18;;;;;;;;;;4995058;28;20275;-51
2022/01/24 10:23:56;;;;;;;5.72;5.22;;;;;;;;;;4995104;28;20166;-51
2022/01/24 10:26:25;;;;;;;5.75;5.25;;;;;;;;;;4995100;28;20519;-51
2022/01/24 10:28:51;;;;;;;5.45;4.95;;;;;;;;;;4994839;28;20531;-51
2022/01/24 10:31:22;;;;;;;5.45;4.95;;;;;;;;;;4994940;28;20724;-51
2022/01/24 10:33:51;;;;;;;6.13;5.53;;;;;;;;;;4994900;28;20177;-51
2022/01/24 10:36:46;;;;;;;5.93;5.32;;;;;;;;;;4994490;28;20585;-52
2022/01/24 10:39:43;;;;;;;5.82;5.32;;;;;;;;;;4975122;28;20189;-52
2022/01/24 10:42:29;;;;;;;6.45;5.85;;;;;;;;;;4994751;28;20267;-51
2022/01/24 10:45:01;;;;;;;6.53;5.88;;;;;;;;;;4994869;28;20597;-51
2022/01/24 10:47:29;;;;;;;10.05;5.85;;;;;;;;;;4993677;28;20188;-51
2022/01/24 10:49:56;;;;;;;6.13;5.53;;;;;;;;;;4994539;28;20172;-50
2022/01/24 10:52:23;;;;;;;6.00;5.38;;;;;;;;;;4993178;28;20197;-51
2022/01/24 10:54:50;;;;;;;5.72;5.22;;;;;;;;;;4994677;28;20196;-51
2022/01/24 10:57:26;;;;;;;5.88;5.30;;;;;;;;;;4994678;28;20656;-51
2022/01/24 11:00:01;;;;;;;6.35;5.78;;;;;;;;;;4994519;28;20169;-53
2022/01/24 11:02:34;;;;;;;6.10;5.50;;;;;;;;;;4994427;28;20191;-50
2022/01/24 11:05:10;;;;;;;7.57;6.30;;;;;;;;;;4994466;28;20165;-51
2022/01/24 11:07:54;;;;;;;6.00;5.38;;;;;;;;;;4993371;28;20173;-51
2022/01/24 11:10:20;;;;;;;6.15;5.65;;;;;;;;;;4993931;28;20240;-51
2022/01/24 11:12:46;;;;;;;6.68;6.00;;;;;;;;;;4994038;28;20218;-51
2022/01/24 11:15:14;;;;;;;6.75;6.15;;;;;;;;;;4992877;28;20221;-51
2022/01/24 11:17:41;;;;;;;6.40;5.75;;;;;;;;;;4994088;28;20167;-51
2022/01/24 11:20:11;;;;;;;6.35;5.85;;;;;;;;;;4993866;28;20257;-51
2022/01/24 11:22:42;;;;;;;6.47;5.93;;;;;;;;;;4993909;28;20676;-51
2022/01/24 11:25:08;;;;;;;9.20;7.03;;;;;;;;;;4994014;28;20169;-51
2022/01/24 11:27:35;;;;;;;9.38;7.25;;;;;;;;;;4993569;28;20408;-51
2022/01/24 11:30:06;;;;;;;9.75;7.03;;;;;;;;;;4993575;28;20177;-51
2022/01/24 11:32:52;;;;;;;7.65;6.68;;;;;;;;;;4993741;28;20575;-51
2022/01/24 11:35:30;;;;;;;11.98;6.97;;;;;;;;;;4983380;28;20229;-51
2022/01/24 11:37:57;;;;;;;8.40;7.15;;;;;;;;;;4993024;28;20679;-51
2022/01/24 11:40:24;;;;;;;7.17;6.57;;;;;;;;;;4993443;28;20264;-51
2022/01/24 11:42:51;;;;;;;6.35;5.85;;;;;;;;;;4992231;28;20483;-51
2022/01/24 11:45:32;;;;;;;8.07;6.70;;;;;;;;;;4993667;28;20170;-51
2022/01/24 11:48:13;;;;;;;7.20;6.50;;;;;;;;;;4993659;28;20184;-51
2022/01/24 11:50:39;;;;;;;7.68;6.95;;;;;;;;;;4993236;28;20177;-51
2022/01/24 11:53:24;;;;;;;7.37;6.30;;;;;;;;;;4993332;28;20196;-51
2022/01/24 11:55:50;;;;;;;7.40;6.70;;;;;;;;;;4992164;28;20906;-51
2022/01/24 11:58:27;;;;;;;6.40;5.90;;;;;;;;;;4993443;28;20462;-51
2022/01/24 12:00:56;;;;;;;11.85;6.75;;;;;;;;;;4993097;28;20835;-51
2022/01/24 12:03:26;;;;;;;9.10;7.28;;;;;;;;;;4993227;28;20216;-51
2022/01/24 12:05:53;;;;;;;8.90;6.40;;;;;;;;;;4992799;28;20169;-51
2022/01/24 12:08:51;;;;;;;7.90;6.30;;;;;;;;;;4991552;28;20181;-51
2022/01/24 12:11:27;;;;;;;7.07;6.38;;;;;;;;;;4980581;28;20821;-51
2022/01/24 12:14:00;;;;;;;9.95;7.35;;;;;;;;;;4994733;28;20176;-51
2022/01/24 12:16:37;;;;;;;7.50;6.70;;;;;;;;;;4993052;28;20200;-51
2022/01/24 12:19:04;;;;;;;6.97;6.30;;;;;;;;;;4992730;28;20561;-51
2022/01/24 12:21:30;;;;;;;7.47;6.70;;;;;;;;;;4992686;28;20492;-53
2022/01/24 12:23:56;;;;;;;10.02;7.20;;;;;;;;;;4992670;28;20400;-51
2022/01/24 12:26:25;;;;;;;8.13;6.57;;;;;;;;;;4992720;28;20223;-52
2022/01/24 12:28:54;;;;;;;7.72;6.93;;;;;;;;;;4992565;28;20459;-50
2022/01/24 12:31:24;;;;;;;6.88;6.20;;;;;;;;;;4992570;28;20188;-50
2022/01/24 12:34:08;;;;;;;6.53;6.03;;;;;;;;;;4992632;28;20250;-51
2022/01/24 12:37:00;;;;;;;10.57;7.10;;;;;;;;;;4991650;28;20474;-51
2022/01/24 12:39:26;;;;;;;10.23;6.90;;;;;;;;;;4983576;28;20181;-50
2022/01/24 12:41:59;;;;;;;7.17;6.47;;;;;;;;;;4992323;28;20199;-51
2022/01/24 12:47:05;;;;;;;8.97;7.87;;;;;;;;;;4992492;28;20192;-51
2022/01/24 12:49:32;;;;;;;9.17;7.00;;;;;;;;;;4992197;28;20463;-51
2022/01/24 12:52:02;;;;;;;9.65;7.25;;;;;;;;;;4992194;28;20527;-51
2022/01/24 12:54:29;;;;;;;8.27;6.43;;;;;;;;;;4992197;28;20292;-50
2022/01/24 12:56:59;;;;;;;8.03;7.23;;;;;;;;;;4992176;28;20693;-51
2022/01/24 12:59:25;;;;;;;6.77;6.17;;;;;;;;;;4992021;28;20409;-51
2022/01/24 13:01:55;;;;;;;7.93;7.13;;;;;;;;;;4992109;28;20429;-51
2022/01/24 13:04:30;;;;;;;7.70;6.43;;;;;;;;;;4992165;28;20409;-50
2022/01/24 13:06:57;;;;;;;7.30;6.60;;;;;;;;;;4990167;28;20579;-52
2022/01/24 13:09:25;;;;;;;8.38;6.55;;;;;;;;;;4991892;28;20184;-51
2022/01/24 13:12:00;;;;;;;7.57;6.75;;;;;;;;;;4991711;28;20201;-52
2022/01/24 13:14:40;;;;;;;7.30;6.50;;;;;;;;;;4992125;28;20170;-51
2022/01/24 13:22:56;;;;;;;7.85;6.57;;;;;;;;;;4969363;28;20277;-51
2022/01/24 13:25:25;;;;;;;6.53;5.93;;;;;;;;;;4992027;28;20173;-51
2022/01/24 13:27:59;;;;;;;7.55;6.20;;;;;;;;;;4992011;28;20631;-50
2022/01/24 13:30:25;;;;;;;12.90;8.13;;;;;;;;;;4991424;28;20169;-51
2022/01/24 13:32:52;;;;;;;11.25;7.90;;;;;;;;;;4991638;28;20189;-51
2022/01/24 13:35:25;;;;;;;9.05;8.15;;;;;;;;;;4991703;28;20718;-51
2022/01/24 13:37:54;;;;;;;6.93;6.23;;;;;;;;;;4990987;28;20549;-51
2022/01/24 13:40:41;;;;;;;8.60;6.75;;;;;;;;;;4991475;28;20764;-50
2022/01/24 13:43:08;;;;;;;10.10;7.88;;;;;;;;;;4991063;28;20284;-51
2022/01/24 13:45:35;;;;;;;15.75;7.72;;;;;;;;;;4991613;28;20178;-52
2022/01/24 13:48:03;;;;;;;7.57;6.53;;;;;;;;;;4991698;28;20259;-51
2022/01/24 13:50:29;;;;;;;8.77;7.88;;;;;;;;;;4992751;28;20177;-50
2022/01/24 13:52:55;;;;;;;9.73;8.83;;;;;;;;;;4995550;28;20565;-50
2022/01/24 13:55:22;;;;;;;8.40;7.45;;;;;;;;;;4995391;28;20486;-51
2022/01/24 13:57:49;;;;;;;12.10;7.80;;;;;;;;;;4995445;28;20179;-51
2022/01/24 14:00:22;;;;;;;8.60;7.70;;;;;;;;;;4995303;28;20223;-51
2022/01/24 14:02:48;;;;;;;11.15;7.85;;;;;;;;;;4994180;28;20434;-51
2022/01/24 14:05:15;;;;;;;9.82;7.30;;;;;;;;;;4995390;28;20205;-51
2022/01/24 14:07:42;;;;;;;10.73;7.60;;;;;;;;;;4994289;28;20189;-51
2022/01/24 14:10:12;;;;;;;9.47;8.27;;;;;;;;;;4994856;28;20404;-50
2022/01/24 14:12:44;;;;;;;11.93;7.88;;;;;;;;;;4995002;28;20878;-50
2022/01/24 14:17:55;;;;;;;9.20;7.40;;;;;;;;;;4995255;28;20192;-51
2022/01/24 14:20:21;;;;;;;8.68;7.35;;;;;;;;;;4994889;28;20424;-51
2022/01/24 14:22:49;;;;;;;9.40;7.03;;;;;;;;;;4994992;28;20251;-51
2022/01/24 14:25:21;;;;;;;8.20;7.32;;;;;;;;;;4995123;28;20161;-51
2022/01/24 14:27:51;;;;;;;8.55;7.43;;;;;;;;;;4995117;28;20176;-51
2022/01/24 14:30:20;;;;;;;8.23;7.43;;;;;;;;;;4994928;28;20169;-50
2022/01/24 14:33:04;;;;;;;6.78;6.18;;;;;;;;;;4994785;28;20216;-51
2022/01/24 14:35:34;;;;;;;8.65;7.75;;;;;;;;;;4994921;28;20669;-52
2022/01/24 14:38:00;;;;;;;7.72;6.93;;;;;;;;;;4994169;28;20212;-50
2022/01/24 14:40:32;;;;;;;8.07;6.53;;;;;;;;;;4994788;28;20564;-51
2022/01/24 14:45:42;;;;;;;12.35;7.03;;;;;;;;;;4995092;28;20180;-50
2022/01/24 14:48:09;;;;;;;9.10;6.73;;;;;;;;;;4994914;28;20547;-51
2022/01/24 14:50:36;;;;;;;9.77;7.45;;;;;;;;;;4994538;28;20952;-50
2022/01/24 14:53:05;;;;;;;9.50;7.03;;;;;;;;;;4994516;28;20197;-50
2022/01/24 14:55:31;;;;;;;6.75;6.15;;;;;;;;;;4994561;28;20279;-50
2022/01/24 14:57:57;;;;;;;11.57;7.68;;;;;;;;;;4994450;28;20211;-50
2022/01/24 15:00:24;;;;;;;7.43;6.63;;;;;;;;;;4994296;28;20205;-51
2022/01/24 15:02:50;;;;;;;9.98;7.15;;;;;;;;;;4993591;28;20424;-50
2022/01/24 15:05:17;;;;;;;9.05;7.10;;;;;;;;;;4994434;28;20208;-51
2022/01/24 15:07:43;;;;;;;12.15;7.65;;;;;;;;;;4993387;28;20260;-51
2022/01/24 15:10:09;;;;;;;9.00;7.63;;;;;;;;;;4993907;28;20183;-50
2022/01/24 15:12:42;;;;;;;7.55;6.75;;;;;;;;;;4994070;28;20616;-50
2022/01/24 15:15:09;;;;;;;13.50;10.07;;;;;;;;;;4993872;28;20204;-51
2022/01/24 15:25:49;;;;;;;7.70;6.75;;;;;;;;;;4994031;28;20184;-50
2022/01/24 15:28:17;;;;;;;11.03;7.80;;;;;;;;;;4994915;28;20532;-50
2022/01/24 15:30:44;;;;;;;7.28;6.57;;;;;;;;;;4993515;28;20408;-51
2022/01/24 15:33:10;;;;;;;10.18;8.00;;;;;;;;;;4993902;28;20174;-50
2022/01/24 15:35:36;;;;;;;8.43;7.63;;;;;;;;;;4992889;28;20583;-52
2022/01/24 15:38:04;;;;;;;8.87;8.00;;;;;;;;;;4992105;28;20442;-50
2022/01/24 15:40:31;;;;;;;10.48;8.57;;;;;;;;;;4993341;28;20404;-52
2022/01/24 15:45:36;;;;;;;11.98;8.40;;;;;;;;;;4993968;28;20180;-51
2022/01/24 15:48:03;;;;;;;10.48;9.02;;;;;;;;;;4993675;28;20261;-50
2022/01/24 15:50:31;;;;;;;13.35;9.15;;;;;;;;;;4993381;28;20649;-52
2022/01/24 15:52:58;;;;;;;12.38;8.65;;;;;;;;;;4993404;28;20196;-51
2022/01/24 15:55:28;;;;;;;9.75;8.57;;;;;;;;;;4993387;28;20235;-50
2022/01/24 15:57:54;;;;;;;10.15;8.15;;;;;;;;;;4993569;28;20172;-53
2022/01/24 16:00:32;;;;;;;9.68;7.80;;;;;;;;;;4993220;28;20594;-51
2022/01/24 16:02:58;;;;;;;8.27;7.15;;;;;;;;;;4993410;28;20181;-50
2022/01/24 16:05:25;;;;;;;9.75;8.35;;;;;;;;;;4992536;28;20177;-52
2022/01/24 16:07:52;;;;;;;8.15;7.43;;;;;;;;;;4991586;28;20186;-50
2022/01/24 16:10:22;;;;;;;11.50;8.15;;;;;;;;;;4993050;28;20531;-50
2022/01/24 16:12:49;;;;;;;9.70;7.78;;;;;;;;;;4992778;28;20208;-51
2022/01/24 16:15:19;;;;;;;12.02;8.40;;;;;;;;;;4992119;28;20559;-53
2022/01/24 16:17:46;;;;;;;8.00;7.30;;;;;;;;;;4993051;28;20169;-51
2022/01/24 16:21:01;;;;;;;10.85;7.43;;;;;;;;;;4992706;28;20161;-51
2022/01/24 16:25:38;;;;;;;10.50;7.97;;;;;;;;;;4992909;28;20235;-50
2022/01/24 16:28:21;;;;;;;8.48;7.50;;;;;;;;;;4992743;28;20169;-51
2022/01/24 16:30:48;;;;;;;9.90;6.90;;;;;;;;;;4992402;28;20248;-52
2022/01/24 16:33:14;;;;;;;7.47;6.75;;;;;;;;;;4992706;28;20215;-50
2022/01/24 16:35:40;;;;;;;7.75;7.00;;;;;;;;;;4991739;28;20196;-50
2022/01/24 16:38:09;;;;;;;8.88;6.85;;;;;;;;;;4992308;28;20239;-51
2022/01/24 16:41:20;;;;;;;8.13;7.20;;;;;;;;;;4992310;28;20227;-50
2022/01/24 16:48:41;;;;;;;7.70;7.00;;;;;;;;;;4992619;28;20203;-51
2022/01/24 16:51:08;;;;;;;8.02;6.28;;;;;;;;;;4972494;28;20206;-52
2022/01/24 16:53:36;;;;;;;10.10;7.65;;;;;;;;;;4972855;28;20170;-51
2022/01/24 16:56:02;;;;;;;7.78;7.07;;;;;;;;;;4972774;28;20193;-51
2022/01/24 16:58:29;;;;;;;8.10;7.28;;;;;;;;;;4972865;28;20196;-51